Webcams

Webcam1&2        Webcam1 (Zeitraffer 2 Std.)        Webcam2 (Zeitraffer 2 Std.)

Webcam1 - Zeitraffer (die letzten zwei Stunden, Intervall: 10min)
cam1--20190823_064000M
cam1--20190823_064959M
cam1--20190823_065959M
cam1--20190823_070958M
cam1--20190823_071958M
cam1--20190823_072959M
cam1--20190823_073959M
cam1--20190823_074959M
cam1--20190823_075959M
cam1--20190823_080959M
cam1--20190823_082000M
cam1--20190823_082959M
cam1--20190823_083959M
01/13 
start stop bwd fwd

Webcam1 - Aktuell

Lokale Serverzeit 08:40 | 23.08.2019
Webcam-Lageplan

Flugwetter

[source: ADDS]
METAR
LOWL 230620Z VRB01KT 9999 FEW030 BKN035 18/16 Q1026 NOSIG =
TAF LOWL 230515Z 2306/2406 10007KT 9999 BKN030 TX25/2315Z TN17/2403Z BECMG 2316/2318 07003KT SCT040
TAF
TAF LOWL 230515Z 2306/2406 10007KT 9999 BKN030 TX25/2315Z TN17/2403Z BECMG 2316/2318 07003KT SCT040 =